createdAt,value
2019-01-26T00:01:03.340Z,20.02
2019-01-26T00:02:09.887Z,19.52
2019-01-26T00:03:14.840Z,18.15
2019-01-26T00:04:20.046Z,22.00
2019-01-26T00:05:25.314Z,18.77
2019-01-26T00:06:30.209Z,21.10
2019-01-26T00:07:35.688Z,18.90
2019-01-26T00:08:40.867Z,20.25
2019-01-26T00:09:46.336Z,19.82
2019-01-26T00:10:51.303Z,19.87
2019-01-26T00:11:56.409Z,19.20
2019-01-26T00:13:01.753Z,21.90
2019-01-26T00:14:06.789Z,20.50
2019-01-26T00:15:12.097Z,20.62
2019-01-26T00:16:21.053Z,20.97
2019-01-26T00:17:24.000Z,19.73
2019-01-26T00:18:31.002Z,21.80
2019-01-26T00:19:37.732Z,20.82
2019-01-26T00:20:42.936Z,21.48
2019-01-26T00:21:47.917Z,21.35
2019-01-26T00:22:52.824Z,21.02
2019-01-26T00:23:58.114Z,20.57
2019-01-26T00:25:03.861Z,21.33
2019-01-26T00:26:08.880Z,23.38
2019-01-26T00:27:14.596Z,22.37
2019-01-26T00:28:19.568Z,23.40
2019-01-26T00:29:24.615Z,21.73
2019-01-26T00:30:30.211Z,21.52
2019-01-26T00:31:35.501Z,23.92
2019-01-26T00:32:40.501Z,20.48
2019-01-26T00:33:45.669Z,22.52
2019-01-26T00:34:50.602Z,21.80
2019-01-26T00:35:55.685Z,22.80
2019-01-26T00:37:00.588Z,24.75
2019-01-26T00:38:05.880Z,24.02
2019-01-26T00:39:10.940Z,24.02
2019-01-26T00:40:16.191Z,23.67
2019-01-26T00:41:22.541Z,21.82
2019-01-26T00:42:27.803Z,23.25
2019-01-26T00:43:32.775Z,21.95
2019-01-26T00:44:37.671Z,22.13
2019-01-26T00:45:42.932Z,22.73
2019-01-26T00:46:47.837Z,23.40
2019-01-26T00:47:52.752Z,23.83
2019-01-26T00:48:57.997Z,22.25
2019-01-26T00:50:02.985Z,23.80
2019-01-26T00:51:07.970Z,24.55
2019-01-26T00:52:12.876Z,22.67
2019-01-26T00:53:18.794Z,22.30
2019-01-26T00:54:23.982Z,25.20
2019-01-26T00:55:28.928Z,24.07
2019-01-26T00:56:34.018Z,24.37
2019-01-26T00:57:38.987Z,24.95
2019-01-26T00:58:43.983Z,24.43
2019-01-26T00:59:49.124Z,24.23
2019-01-26T01:00:54.307Z,23.52
2019-01-26T01:01:59.294Z,24.72
2019-01-26T01:03:04.324Z,26.48
2019-01-26T01:04:09.501Z,25.02
2019-01-26T01:05:14.805Z,24.27
2019-01-26T01:06:19.788Z,25.68
2019-01-26T01:07:26.069Z,23.83
2019-01-26T01:08:31.051Z,24.87
2019-01-26T01:09:36.380Z,24.92
2019-01-26T01:10:41.427Z,25.68
2019-01-26T01:11:46.686Z,23.95
2019-01-26T01:12:51.661Z,25.05
2019-01-26T01:13:56.593Z,24.70
2019-01-26T01:15:01.797Z,25.60
2019-01-26T01:16:07.131Z,24.00
2019-01-26T01:17:12.097Z,24.05
2019-01-26T01:18:17.074Z,25.50
2019-01-26T01:19:22.313Z,26.15
2019-01-26T01:20:27.286Z,26.60
2019-01-26T01:21:32.852Z,23.75
2019-01-26T01:22:38.251Z,25.57
2019-01-26T01:23:43.710Z,26.82
2019-01-26T01:24:49.078Z,25.90
2019-01-26T01:25:54.015Z,23.85
2019-01-26T01:26:59.130Z,26.30
2019-01-26T01:28:04.590Z,27.02
2019-01-26T01:29:09.497Z,26.05
2019-01-26T01:30:17.862Z,26.57
2019-01-26T01:31:22.755Z,25.70
2019-01-26T01:32:27.897Z,27.25
2019-01-26T01:33:32.869Z,27.65
2019-01-26T01:34:37.781Z,26.50
2019-01-26T01:35:42.665Z,29.18
2019-01-26T01:36:47.935Z,26.25
2019-01-26T01:37:52.907Z,24.75
2019-01-26T01:38:57.921Z,28.62
2019-01-26T01:40:03.591Z,26.10
2019-01-26T01:41:08.553Z,24.80
2019-01-26T01:42:13.574Z,28.80
2019-01-26T01:43:18.629Z,24.72
2019-01-26T01:44:23.922Z,27.50
2019-01-26T01:45:29.332Z,27.75
2019-01-26T01:46:34.309Z,24.63
2019-01-26T01:47:39.367Z,27.00
2019-01-26T01:48:44.209Z,25.72
2019-01-26T01:49:49.459Z,25.65
2019-01-26T01:50:54.450Z,23.95
2019-01-26T01:51:59.514Z,27.13
2019-01-26T01:53:04.837Z,26.60
2019-01-26T01:54:09.812Z,27.13
2019-01-26T01:55:15.794Z,29.25
2019-01-26T01:56:20.902Z,26.95
2019-01-26T01:57:25.784Z,27.80
2019-01-26T01:58:31.035Z,28.27
2019-01-26T01:59:36.337Z,27.25
2019-01-26T02:00:41.256Z,28.60
2019-01-26T02:01:46.205Z,27.27
2019-01-26T02:02:51.168Z,25.43
2019-01-26T02:03:56.434Z,27.45
2019-01-26T02:05:01.662Z,28.57
2019-01-26T02:06:06.920Z,29.52
2019-01-26T02:07:11.939Z,29.52
2019-01-26T02:08:16.853Z,27.22
2019-01-26T02:09:21.939Z,28.12
2019-01-26T02:10:28.747Z,27.73
2019-01-26T02:11:33.662Z,28.67
2019-01-26T02:12:39.025Z,29.67
2019-01-26T02:13:43.989Z,29.00
2019-01-26T02:14:48.907Z,27.40
2019-01-26T02:15:53.950Z,30.72
2019-01-26T02:16:58.882Z,27.58
2019-01-26T02:18:04.711Z,29.87
2019-01-26T02:19:09.630Z,28.50
2019-01-26T02:20:17.846Z,30.00
2019-01-26T02:21:23.071Z,29.48
2019-01-26T02:22:27.977Z,28.40
2019-01-26T02:23:33.128Z,28.85
2019-01-26T02:24:38.305Z,29.85
2019-01-26T02:25:43.235Z,28.32
2019-01-26T02:26:48.861Z,28.70
2019-01-26T02:27:54.144Z,28.55
2019-01-26T02:28:59.028Z,26.77
2019-01-26T02:30:05.131Z,27.17
2019-01-26T02:31:10.435Z,27.07
2019-01-26T02:32:15.454Z,28.67
2019-01-26T02:33:20.364Z,27.25
2019-01-26T02:34:25.270Z,26.85
2019-01-26T02:35:30.664Z,29.80
2019-01-26T02:36:35.682Z,29.52
2019-01-26T02:37:40.836Z,27.90
2019-01-26T02:38:45.743Z,28.23
2019-01-26T02:39:50.634Z,28.67
2019-01-26T02:40:55.531Z,28.92
2019-01-26T02:42:00.800Z,28.60
2019-01-26T02:43:05.788Z,28.15
2019-01-26T02:44:11.160Z,30.20
2019-01-26T02:45:16.346Z,29.52
2019-01-26T02:46:21.271Z,29.87
2019-01-26T02:47:26.188Z,30.92
2019-01-26T02:48:31.085Z,29.80
2019-01-26T02:49:35.988Z,29.07
2019-01-26T02:50:41.028Z,30.40
2019-01-26T02:51:46.227Z,29.45
2019-01-26T02:52:51.149Z,31.77
2019-01-26T02:53:56.079Z,28.60
2019-01-26T02:55:00.992Z,29.82
2019-01-26T02:56:05.967Z,29.75
2019-01-26T02:57:11.800Z,30.40
2019-01-26T02:58:16.789Z,32.40
2019-01-26T02:59:21.771Z,28.80
2019-01-26T03:00:29.688Z,31.07
2019-01-26T03:01:34.719Z,32.00
2019-01-26T03:02:40.042Z,30.92
2019-01-26T03:03:44.952Z,31.52
2019-01-26T03:04:50.181Z,31.93
2019-01-26T03:05:55.082Z,32.48
2019-01-26T03:07:00.293Z,31.93
2019-01-26T03:08:05.478Z,32.33
2019-01-26T03:09:10.675Z,34.05
2019-01-26T03:10:17.525Z,30.68
2019-01-26T03:11:22.847Z,31.48
2019-01-26T03:12:27.748Z,30.92
2019-01-26T03:13:32.702Z,31.00
2019-01-26T03:14:38.210Z,30.88
2019-01-26T03:15:43.208Z,32.67
2019-01-26T03:16:48.115Z,32.70
2019-01-26T03:17:53.277Z,33.70
2019-01-26T03:18:58.504Z,31.17
2019-01-26T03:20:03.738Z,32.05
2019-01-26T03:21:09.016Z,31.15
2019-01-26T03:22:14.022Z,30.62
2019-01-26T03:23:19.014Z,32.50
2019-01-26T03:24:23.900Z,30.85
2019-01-26T03:25:28.819Z,30.75
2019-01-26T03:26:33.776Z,30.60
2019-01-26T03:27:38.801Z,30.10
2019-01-26T03:28:43.726Z,32.23
2019-01-26T03:29:48.636Z,32.28
2019-01-26T03:30:53.631Z,30.00
2019-01-26T03:31:58.586Z,29.50
2019-01-26T03:33:03.449Z,31.07
2019-01-26T03:34:08.503Z,31.42
2019-01-26T03:35:13.502Z,31.55
2019-01-26T03:36:18.448Z,32.58
2019-01-26T03:37:23.347Z,31.07
2019-01-26T03:38:28.923Z,31.50
2019-01-26T03:39:33.820Z,31.12
2019-01-26T03:40:38.709Z,30.20
2019-01-26T03:41:43.720Z,29.48
2019-01-26T03:42:48.912Z,31.35
2019-01-26T03:43:54.501Z,29.20
2019-01-26T03:44:59.388Z,32.35
2019-01-26T03:46:04.692Z,30.90
2019-01-26T03:47:13.747Z,31.25
2019-01-26T03:48:16.534Z,30.50
2019-01-26T03:49:22.125Z,32.98
2019-01-26T03:50:27.102Z,33.20
2019-01-26T03:51:32.331Z,30.60
2019-01-26T03:52:37.271Z,29.02
2019-01-26T03:53:45.864Z,30.60
2019-01-26T03:54:51.033Z,29.90
2019-01-26T03:55:56.393Z,29.15
2019-01-26T03:57:01.364Z,29.77
2019-01-26T03:58:06.345Z,30.80
2019-01-26T03:59:12.354Z,29.35
2019-01-26T04:00:19.797Z,28.40
2019-01-26T04:01:25.050Z,30.10
2019-01-26T04:02:30.404Z,31.17
2019-01-26T04:03:35.388Z,31.48
2019-01-26T04:04:40.446Z,29.63
2019-01-26T04:05:45.342Z,30.45
2019-01-26T04:06:50.254Z,31.23
2019-01-26T04:07:55.223Z,30.50
2019-01-26T04:09:00.187Z,29.07
2019-01-26T04:10:05.981Z,31.75
2019-01-26T04:11:10.959Z,28.90
2019-01-26T04:12:15.930Z,29.20
2019-01-26T04:13:21.200Z,31.15
2019-01-26T04:14:26.267Z,31.52
2019-01-26T04:15:31.240Z,33.48
2019-01-26T04:16:36.914Z,30.75
2019-01-26T04:17:42.189Z,32.98
2019-01-26T04:18:47.167Z,32.60
2019-01-26T04:19:52.406Z,33.63
2019-01-26T04:20:57.380Z,33.25
2019-01-26T04:22:02.284Z,34.88
2019-01-26T04:23:07.246Z,31.80
2019-01-26T04:24:12.232Z,30.27
2019-01-26T04:25:17.659Z,29.52
2019-01-26T04:26:22.949Z,33.25
2019-01-26T04:27:27.866Z,30.80
2019-01-26T04:28:32.777Z,32.55
2019-01-26T04:29:37.758Z,31.73
2019-01-26T04:30:42.932Z,30.25
2019-01-26T04:31:47.912Z,31.60
2019-01-26T04:32:53.295Z,30.60
2019-01-26T04:33:58.475Z,30.97
2019-01-26T04:35:03.850Z,32.53
2019-01-26T04:36:09.022Z,32.85
2019-01-26T04:37:14.338Z,32.28
2019-01-26T04:38:19.221Z,34.18
2019-01-26T04:39:24.409Z,31.27
2019-01-26T04:40:29.303Z,33.30
2019-01-26T04:41:34.279Z,32.20
2019-01-26T04:42:39.269Z,34.18
2019-01-26T04:43:44.557Z,28.87
2019-01-26T04:44:49.540Z,32.55
2019-01-26T04:45:54.553Z,32.63
2019-01-26T04:46:59.568Z,32.60
2019-01-26T04:48:05.640Z,31.65
2019-01-26T04:49:10.833Z,32.03
2019-01-26T04:50:16.924Z,32.78
2019-01-26T04:51:21.989Z,32.78
2019-01-26T04:52:27.657Z,34.03
2019-01-26T04:53:32.944Z,32.53
2019-01-26T04:54:38.159Z,30.62
2019-01-26T04:55:43.422Z,32.33
2019-01-26T04:56:48.418Z,35.52
2019-01-26T04:57:53.358Z,32.25
2019-01-26T04:58:58.376Z,34.83
2019-01-26T05:00:03.366Z,32.45
2019-01-26T05:01:09.160Z,34.58
2019-01-26T05:02:14.368Z,32.38
2019-01-26T05:03:19.486Z,33.78
2019-01-26T05:04:24.427Z,33.18
2019-01-26T05:05:29.402Z,34.05
2019-01-26T05:06:34.289Z,29.05
2019-01-26T05:07:39.546Z,31.93
2019-01-26T05:08:44.736Z,33.08
2019-01-26T05:09:50.029Z,33.67
2019-01-26T05:10:54.923Z,33.33
2019-01-26T05:11:59.816Z,33.42
2019-01-26T05:13:04.777Z,31.02
2019-01-26T05:14:09.727Z,30.50
2019-01-26T05:15:15.358Z,32.48
2019-01-26T05:16:20.324Z,31.15
2019-01-26T05:17:25.221Z,33.08
2019-01-26T05:18:30.138Z,31.85
2019-01-26T05:19:35.126Z,33.90
2019-01-26T05:20:40.027Z,32.65
2019-01-26T05:21:44.933Z,31.90
2019-01-26T05:22:49.924Z,32.08
2019-01-26T05:23:55.207Z,32.50
2019-01-26T05:25:00.350Z,33.38
2019-01-26T05:26:05.820Z,31.80
2019-01-26T05:27:10.827Z,32.20
2019-01-26T05:28:15.799Z,31.73
2019-01-26T05:29:20.876Z,30.68
2019-01-26T05:30:29.979Z,33.00
2019-01-26T05:31:34.958Z,30.82
2019-01-26T05:32:39.892Z,31.97
2019-01-26T05:33:45.141Z,31.10
2019-01-26T05:34:50.038Z,32.58
2019-01-26T05:35:54.969Z,30.57
2019-01-26T05:36:59.884Z,32.63
2019-01-26T05:38:05.273Z,29.30
2019-01-26T05:39:10.212Z,32.23
2019-01-26T05:40:16.144Z,32.70
2019-01-26T05:41:21.110Z,29.98
2019-01-26T05:42:26.089Z,32.55
2019-01-26T05:43:30.978Z,30.65
2019-01-26T05:44:35.901Z,30.60
2019-01-26T05:45:40.873Z,32.17
2019-01-26T05:46:46.172Z,32.28
2019-01-26T05:47:51.351Z,33.05
2019-01-26T05:48:56.259Z,31.23
2019-01-26T05:50:01.222Z,31.87
2019-01-26T05:51:06.247Z,33.63
2019-01-26T05:52:11.232Z,30.90
2019-01-26T05:53:16.211Z,30.85
2019-01-26T05:54:21.181Z,29.65
2019-01-26T05:55:26.424Z,31.70
2019-01-26T05:56:31.730Z,29.92
2019-01-26T05:57:36.757Z,30.43
2019-01-26T05:58:41.951Z,31.30
2019-01-26T05:59:46.870Z,29.50
2019-01-26T06:00:51.769Z,31.55
2019-01-26T06:01:56.855Z,31.87
2019-01-26T06:03:01.854Z,30.82
2019-01-26T06:04:08.641Z,30.82
2019-01-26T06:05:13.797Z,29.70
2019-01-26T06:06:18.729Z,30.20
2019-01-26T06:07:24.045Z,28.60
2019-01-26T06:08:29.119Z,31.23
2019-01-26T06:09:34.357Z,28.47
2019-01-26T06:10:39.507Z,28.55
2019-01-26T06:11:44.951Z,31.87
2019-01-26T06:12:50.137Z,30.68
2019-01-26T06:13:55.044Z,29.10
2019-01-26T06:15:00.333Z,29.02
2019-01-26T06:16:05.847Z,30.65
2019-01-26T06:17:10.760Z,30.20
2019-01-26T06:18:17.073Z,29.45
2019-01-26T06:19:22.117Z,29.12
2019-01-26T06:20:27.569Z,30.27
2019-01-26T06:21:33.053Z,29.07
2019-01-26T06:22:38.286Z,31.82
2019-01-26T06:23:43.463Z,29.95
2019-01-26T06:24:48.424Z,29.85
2019-01-26T06:25:53.407Z,29.48
2019-01-26T06:26:58.405Z,28.95
2019-01-26T06:28:03.706Z,30.30
2019-01-26T06:29:08.635Z,30.32
2019-01-26T06:30:19.261Z,29.65
2019-01-26T06:31:24.170Z,30.50
2019-01-26T06:32:29.152Z,30.92
2019-01-26T06:33:34.149Z,29.77
2019-01-26T06:34:39.306Z,29.67
2019-01-26T06:35:44.594Z,31.82
2019-01-26T06:36:49.492Z,29.02
2019-01-26T06:37:54.675Z,29.18
2019-01-26T06:38:59.600Z,26.75
2019-01-26T06:40:06.029Z,28.17
2019-01-26T06:41:11.042Z,27.13
2019-01-26T06:42:15.948Z,28.35
2019-01-26T06:43:20.838Z,30.37
2019-01-26T06:44:25.756Z,29.92
2019-01-26T06:45:30.842Z,28.52
2019-01-26T06:46:35.795Z,29.50
2019-01-26T06:47:40.765Z,27.50
2019-01-26T06:48:47.911Z,27.73
2019-01-26T06:49:52.852Z,28.07
2019-01-26T06:50:57.742Z,27.65
2019-01-26T06:52:02.734Z,28.30
2019-01-26T06:53:07.640Z,28.02
2019-01-26T06:54:12.516Z,27.20
2019-01-26T06:55:17.838Z,27.45
2019-01-26T06:56:23.135Z,30.37
2019-01-26T06:57:28.069Z,29.10
2019-01-26T06:58:33.166Z,27.93
2019-01-26T06:59:38.043Z,27.77
2019-01-26T07:00:42.960Z,29.27
2019-01-26T07:01:47.975Z,27.52
2019-01-26T07:02:52.958Z,26.55
2019-01-26T07:03:58.219Z,27.17
2019-01-26T07:05:35.793Z,29.57
2019-01-26T07:06:47.622Z,27.75
2019-01-26T07:07:52.958Z,27.07
2019-01-26T07:08:58.195Z,26.65
2019-01-26T07:10:04.215Z,27.30
2019-01-26T07:11:09.250Z,26.30
2019-01-26T07:12:14.547Z,28.05
2019-01-26T07:13:19.675Z,31.17
2019-01-26T07:14:24.887Z,27.98
2019-01-26T07:15:30.264Z,26.42
2019-01-26T07:16:35.273Z,28.42
2019-01-26T07:17:40.470Z,24.63
2019-01-26T07:18:45.734Z,28.30
2019-01-26T07:19:50.964Z,26.57
2019-01-26T07:20:59.280Z,26.62
2019-01-26T07:22:04.516Z,26.37
2019-01-26T07:23:09.627Z,26.45
2019-01-26T07:24:14.560Z,26.27
2019-01-26T07:25:19.906Z,25.32
2019-01-26T07:26:24.909Z,25.82
2019-01-26T07:27:29.884Z,26.10
2019-01-26T07:28:34.777Z,26.55
2019-01-26T07:29:39.757Z,26.60
2019-01-26T07:30:44.942Z,25.60
2019-01-26T07:31:49.854Z,25.57
2019-01-26T07:32:55.841Z,23.85
2019-01-26T07:34:00.752Z,23.50
2019-01-26T07:35:06.407Z,26.42
2019-01-26T07:36:11.595Z,25.10
2019-01-26T07:37:17.741Z,25.45
2019-01-26T07:38:23.291Z,25.82
2019-01-26T07:39:28.893Z,25.90
2019-01-26T07:40:34.331Z,24.90
2019-01-26T07:41:39.571Z,27.48
2019-01-26T07:42:45.066Z,24.30
2019-01-26T07:43:50.056Z,25.75
2019-01-26T07:44:55.167Z,24.95
2019-01-26T07:46:00.653Z,26.68
2019-01-26T07:47:05.735Z,24.67
2019-01-26T07:48:16.783Z,24.20
2019-01-26T07:49:18.107Z,25.05
2019-01-26T07:50:23.485Z,24.98
2019-01-26T07:51:29.092Z,23.50
2019-01-26T07:52:34.313Z,25.70
2019-01-26T07:53:39.304Z,22.95
2019-01-26T07:54:44.267Z,23.87
2019-01-26T07:55:49.324Z,27.55
2019-01-26T07:56:54.305Z,25.77
2019-01-26T07:57:59.355Z,25.52
2019-01-26T07:59:04.291Z,27.48
2019-01-26T08:00:16.443Z,25.72
2019-01-26T08:01:21.423Z,26.20
2019-01-26T08:02:26.610Z,26.60
2019-01-26T08:03:31.523Z,28.45
2019-01-26T08:04:36.523Z,25.77
2019-01-26T08:05:41.495Z,27.27
2019-01-26T08:06:46.445Z,27.35
2019-01-26T08:07:51.494Z,28.20
2019-01-26T08:08:57.908Z,26.60
2019-01-26T08:10:03.227Z,27.10
2019-01-26T08:11:08.451Z,25.68
2019-01-26T08:12:13.358Z,26.50
2019-01-26T08:13:18.279Z,26.68
2019-01-26T08:14:23.564Z,25.65
2019-01-26T08:15:34.613Z,25.50
2019-01-26T08:16:39.543Z,25.85
2019-01-26T08:17:44.494Z,27.60
2019-01-26T08:18:49.435Z,23.02
2019-01-26T08:19:54.691Z,26.23
2019-01-26T08:20:59.703Z,23.40
2019-01-26T08:22:05.069Z,24.60
2019-01-26T08:23:10.576Z,23.60
2019-01-26T08:24:16.127Z,25.00
2019-01-26T08:25:21.558Z,23.30
2019-01-26T08:26:26.592Z,23.22
2019-01-26T08:27:31.524Z,20.72
2019-01-26T08:28:36.528Z,23.27
2019-01-26T08:29:41.915Z,24.65
2019-01-26T08:30:47.090Z,22.13
2019-01-26T08:31:52.049Z,22.95
2019-01-26T08:32:57.007Z,24.12
2019-01-26T08:34:02.243Z,23.20
2019-01-26T08:35:07.643Z,20.68
2019-01-26T08:36:13.023Z,22.75
2019-01-26T08:37:17.945Z,22.77
2019-01-26T08:38:23.024Z,22.25
2019-01-26T08:39:27.969Z,22.60
2019-01-26T08:40:32.899Z,22.60
2019-01-26T08:41:37.841Z,22.05
2019-01-26T08:42:43.429Z,22.15
2019-01-26T08:43:48.328Z,22.85
2019-01-26T08:44:53.308Z,20.55
2019-01-26T08:45:58.239Z,21.65
2019-01-26T08:47:03.477Z,23.40
2019-01-26T08:48:08.578Z,19.48
2019-01-26T08:49:13.546Z,20.02
2019-01-26T08:50:20.967Z,20.37
2019-01-26T08:51:25.873Z,19.70
2019-01-26T08:52:31.181Z,19.67
2019-01-26T08:53:35.994Z,22.07
2019-01-26T08:54:40.919Z,18.30
2019-01-26T08:55:45.863Z,18.80
2019-01-26T08:56:51.151Z,19.98
2019-01-26T08:57:56.161Z,19.48
2019-01-26T08:59:01.228Z,18.42
2019-01-26T09:00:09.412Z,18.62
2019-01-26T09:01:14.385Z,17.55
2019-01-26T09:02:38.686Z,18.87
2019-01-26T09:03:58.297Z,17.05
2019-01-26T09:05:03.261Z,19.65
2019-01-26T09:06:30.499Z,19.87
2019-01-26T09:07:35.423Z,18.48
2019-01-26T09:08:41.254Z,17.35
2019-01-26T09:09:46.181Z,19.48
2019-01-26T09:10:51.526Z,18.02
2019-01-26T09:11:57.500Z,16.70
2019-01-26T09:13:02.518Z,16.87
2019-01-26T09:14:07.488Z,16.52
2019-01-26T09:15:13.377Z,16.95
2019-01-26T09:16:18.387Z,16.05
2019-01-26T09:17:23.570Z,17.30
2019-01-26T09:18:28.643Z,19.27
2019-01-26T09:19:33.624Z,18.07
2019-01-26T09:20:39.069Z,16.30
2019-01-26T09:21:45.733Z,16.97
2019-01-26T09:22:51.125Z,16.93
2019-01-26T09:23:56.053Z,17.00
2019-01-26T09:25:00.954Z,19.32
2019-01-26T09:26:06.312Z,16.55
2019-01-26T09:27:11.383Z,15.05
2019-01-26T09:28:16.459Z,18.00
2019-01-26T09:29:21.674Z,18.75
2019-01-26T09:30:26.666Z,17.95
2019-01-26T09:31:31.879Z,15.93
2019-01-26T09:32:36.922Z,17.52
2019-01-26T09:33:42.473Z,15.98
2019-01-26T09:34:48.116Z,17.30
2019-01-26T09:35:53.158Z,19.02
2019-01-26T09:36:58.201Z,17.32
2019-01-26T09:38:03.284Z,17.45
2019-01-26T09:39:10.364Z,16.65
2019-01-26T09:40:16.306Z,17.85
2019-01-26T09:41:21.243Z,16.70
2019-01-26T09:42:38.460Z,18.30
2019-01-26T09:43:43.546Z,16.17
2019-01-26T09:44:48.646Z,16.82
2019-01-26T09:45:53.638Z,17.73
2019-01-26T09:46:58.965Z,17.23
2019-01-26T09:48:04.097Z,16.10
2019-01-26T09:49:09.159Z,16.37
2019-01-26T09:50:15.202Z,17.30
2019-01-26T09:51:20.539Z,16.85
2019-01-26T09:52:25.536Z,17.27
2019-01-26T09:53:30.618Z,13.88
2019-01-26T09:54:35.561Z,16.07
2019-01-26T09:55:40.480Z,16.82
2019-01-26T09:56:45.385Z,16.17
2019-01-26T09:57:50.978Z,17.67
2019-01-26T09:58:56.386Z,16.27
2019-01-26T10:00:01.321Z,17.55
2019-01-26T10:01:07.257Z,15.93
2019-01-26T10:02:12.348Z,15.58
2019-01-26T10:03:17.680Z,16.45
2019-01-26T10:04:22.709Z,16.30
2019-01-26T10:05:28.103Z,15.30
2019-01-26T10:06:33.173Z,15.70
2019-01-26T10:07:38.151Z,15.43
2019-01-26T10:08:44.076Z,17.27
2019-01-26T10:09:49.829Z,16.62
2019-01-26T10:10:55.385Z,17.10
2019-01-26T10:12:00.314Z,15.00
2019-01-26T10:13:05.297Z,17.32
2019-01-26T10:14:11.411Z,15.32
2019-01-26T10:15:16.709Z,16.12
2019-01-26T10:16:22.018Z,15.13
2019-01-26T10:17:27.019Z,16.35
2019-01-26T10:18:32.042Z,14.35
2019-01-26T10:19:37.117Z,15.60
2019-01-26T10:20:42.400Z,14.93
2019-01-26T10:21:47.709Z,14.40
2019-01-26T10:22:52.730Z,14.55
2019-01-26T10:23:57.644Z,15.60
2019-01-26T10:25:02.666Z,14.90
2019-01-26T10:26:08.162Z,14.98
2019-01-26T10:27:13.337Z,13.95
2019-01-26T10:28:18.603Z,14.70
2019-01-26T10:29:23.798Z,16.00
2019-01-26T10:30:34.625Z,15.30
2019-01-26T10:31:40.061Z,13.95
2019-01-26T10:32:45.605Z,13.80
2019-01-26T10:33:50.653Z,16.32
2019-01-26T10:34:55.590Z,15.10
2019-01-26T10:36:19.778Z,15.32
2019-01-26T10:37:27.352Z,15.20
2019-01-26T10:38:34.167Z,15.53
2019-01-26T10:39:39.148Z,16.42
2019-01-26T10:41:11.923Z,14.03
2019-01-26T10:42:28.358Z,15.58
2019-01-26T10:43:35.664Z,13.75
2019-01-26T10:44:41.220Z,16.12
2019-01-26T10:45:47.138Z,13.68
2019-01-26T10:46:52.117Z,15.65
2019-01-26T10:47:57.200Z,14.53
2019-01-26T10:49:02.214Z,15.70
2019-01-26T10:50:07.616Z,13.88
2019-01-26T10:51:12.632Z,15.13
2019-01-26T10:52:17.628Z,13.90
2019-01-26T10:53:23.011Z,13.75
2019-01-26T10:54:28.005Z,15.13
2019-01-26T10:55:33.009Z,15.25
2019-01-26T10:56:38.000Z,15.40
2019-01-26T10:57:43.253Z,14.03
2019-01-26T10:58:48.182Z,17.10
2019-01-26T10:59:53.640Z,13.78
2019-01-26T11:00:59.223Z,13.75
2019-01-26T11:02:04.458Z,14.63
2019-01-26T11:03:09.904Z,15.28
2019-01-26T11:04:14.915Z,13.58
2019-01-26T11:05:20.040Z,16.52
2019-01-26T11:06:25.146Z,15.23
2019-01-26T11:07:30.552Z,14.75
2019-01-26T11:08:35.771Z,15.72
2019-01-26T11:09:40.948Z,15.15
2019-01-26T11:10:46.031Z,12.68
2019-01-26T11:11:51.062Z,14.30
2019-01-26T11:12:56.100Z,14.63
2019-01-26T11:14:01.298Z,16.50
2019-01-26T11:15:06.885Z,14.38
2019-01-26T11:16:13.037Z,14.60
2019-01-26T11:17:18.031Z,13.30
2019-01-26T11:18:22.960Z,16.25
2019-01-26T11:19:28.026Z,14.13
2019-01-26T11:20:33.012Z,14.50
2019-01-26T11:21:37.939Z,13.72
2019-01-26T11:22:43.416Z,14.30
2019-01-26T11:23:48.347Z,13.60
2019-01-26T11:24:53.251Z,14.00
2019-01-26T11:25:58.415Z,14.63
2019-01-26T11:27:03.672Z,14.83
2019-01-26T11:28:08.673Z,14.03
2019-01-26T11:29:14.185Z,13.75
2019-01-26T11:30:20.454Z,14.05
2019-01-26T11:31:25.997Z,14.65
2019-01-26T11:32:31.386Z,15.60
2019-01-26T11:33:36.779Z,14.40
2019-01-26T11:34:41.866Z,14.38
2019-01-26T11:35:47.157Z,13.10
2019-01-26T11:36:52.368Z,13.98
2019-01-26T11:38:00.515Z,13.85
2019-01-26T11:39:09.522Z,14.65
2019-01-26T11:40:20.844Z,14.98
2019-01-26T11:41:25.808Z,15.83
2019-01-26T11:42:31.121Z,15.68
2019-01-26T11:43:39.560Z,14.95
2019-01-26T11:45:03.499Z,14.63
2019-01-26T11:46:18.707Z,15.93
2019-01-26T11:47:24.203Z,13.60
2019-01-26T11:48:33.159Z,14.38
2019-01-26T11:49:42.101Z,14.05
2019-01-26T11:50:50.212Z,14.50
2019-01-26T11:52:12.865Z,16.05
2019-01-26T11:53:19.676Z,14.90
2019-01-26T11:54:24.629Z,16.05
2019-01-26T11:55:41.463Z,16.17
2019-01-26T11:56:48.850Z,15.93
2019-01-26T11:57:54.614Z,15.72
2019-01-26T11:58:59.693Z,15.58
2019-01-26T12:00:31.875Z,16.62
2019-01-26T12:01:45.833Z,15.88
2019-01-26T12:03:19.552Z,15.98
2019-01-26T12:04:46.608Z,14.33
2019-01-26T12:05:56.132Z,15.05
2019-01-26T12:07:06.045Z,14.70
2019-01-26T12:08:11.263Z,14.85
2019-01-26T12:09:18.344Z,15.43
2019-01-26T12:10:23.248Z,17.20
2019-01-26T12:11:28.255Z,15.43
2019-01-26T12:12:33.843Z,15.40
2019-01-26T12:13:40.499Z,17.02
2019-01-26T12:14:45.839Z,15.13
2019-01-26T12:15:50.982Z,14.65
2019-01-26T12:16:55.934Z,14.60
2019-01-26T12:18:02.084Z,14.95
2019-01-26T12:19:08.195Z,13.78
2019-01-26T12:20:15.286Z,14.73
2019-01-26T12:21:20.491Z,15.60
2019-01-26T12:22:25.481Z,14.47
2019-01-26T12:23:30.411Z,13.40
2019-01-26T12:24:35.426Z,16.20
2019-01-26T12:25:40.441Z,13.83
2019-01-26T12:26:46.064Z,13.55
2019-01-26T12:27:51.462Z,13.43
2019-01-26T12:28:57.122Z,13.80
2019-01-26T12:30:04.270Z,14.10
2019-01-26T12:31:09.442Z,12.60
2019-01-26T12:32:14.420Z,12.82
2019-01-26T12:33:19.381Z,13.08
2019-01-26T12:34:24.418Z,12.55
2019-01-26T12:35:29.843Z,13.62
2019-01-26T12:36:34.978Z,12.98
2019-01-26T12:37:40.142Z,13.60
2019-01-26T12:38:45.086Z,13.35
2019-01-26T12:39:50.027Z,13.45
2019-01-26T12:40:55.469Z,14.63
2019-01-26T12:42:00.505Z,12.82
2019-01-26T12:43:05.780Z,14.58
2019-01-26T12:44:10.714Z,13.18
2019-01-26T12:45:18.642Z,13.25
2019-01-26T12:46:24.344Z,13.40
2019-01-26T12:47:29.752Z,11.65
2019-01-26T12:48:34.819Z,12.45
2019-01-26T12:49:39.729Z,12.13
2019-01-26T12:50:44.835Z,14.75
2019-01-26T12:51:49.943Z,13.15
2019-01-26T12:52:55.388Z,12.58
2019-01-26T12:54:00.468Z,13.58
2019-01-26T12:55:06.218Z,12.43
2019-01-26T12:56:11.680Z,11.63
2019-01-26T12:57:16.724Z,12.70
2019-01-26T12:58:21.799Z,12.60
2019-01-26T12:59:26.835Z,14.10
2019-01-26T13:00:31.905Z,12.50
2019-01-26T13:01:37.317Z,13.10
2019-01-26T13:02:42.492Z,14.15
2019-01-26T13:03:48.003Z,12.88
2019-01-26T13:04:53.061Z,13.25
2019-01-26T13:05:58.199Z,13.72
2019-01-26T13:07:03.581Z,13.25
2019-01-26T13:08:10.015Z,13.05
2019-01-26T13:09:15.520Z,13.68
2019-01-26T13:10:24.022Z,14.58
2019-01-26T13:11:30.405Z,14.00
2019-01-26T13:12:35.452Z,13.45
2019-01-26T13:13:40.625Z,13.22
2019-01-26T13:14:45.647Z,12.37
2019-01-26T13:15:50.996Z,14.40
2019-01-26T13:16:56.403Z,13.90
2019-01-26T13:18:01.464Z,13.22
2019-01-26T13:19:06.743Z,13.83
2019-01-26T13:20:13.413Z,12.70
2019-01-26T13:21:19.569Z,13.22
2019-01-26T13:22:24.806Z,13.62
2019-01-26T13:23:30.070Z,11.53
2019-01-26T13:24:35.723Z,11.40
2019-01-26T13:25:40.670Z,13.90
2019-01-26T13:26:45.676Z,12.95
2019-01-26T13:27:50.597Z,11.10
2019-01-26T13:28:56.083Z,12.70
2019-01-26T13:30:01.151Z,12.18
2019-01-26T13:31:06.527Z,11.78
2019-01-26T13:32:11.601Z,11.12
2019-01-26T13:33:17.918Z,11.00
2019-01-26T13:34:23.635Z,9.90
2019-01-26T13:35:28.689Z,9.60
2019-01-26T13:36:33.932Z,7.90
2019-01-26T13:37:38.873Z,9.28
2019-01-26T13:38:43.851Z,9.40
2019-01-26T13:39:48.802Z,9.95
2019-01-26T13:40:53.781Z,10.05
2019-01-26T13:41:58.817Z,9.08
2019-01-26T13:43:03.902Z,9.73
2019-01-26T13:44:09.719Z,9.95
2019-01-26T13:45:15.401Z,10.35
2019-01-26T13:46:20.558Z,9.45
2019-01-26T13:47:25.564Z,9.45
2019-01-26T13:48:30.496Z,8.95
2019-01-26T13:49:36.154Z,8.50
2019-01-26T13:50:41.286Z,8.70
2019-01-26T13:51:46.250Z,8.80
2019-01-26T13:52:51.417Z,7.58
2019-01-26T13:53:56.492Z,8.23
2019-01-26T13:55:01.398Z,7.95
2019-01-26T13:56:07.068Z,8.28
2019-01-26T13:57:12.659Z,8.50
2019-01-26T13:58:17.774Z,8.30
2019-01-26T13:59:22.756Z,8.28
2019-01-26T14:00:29.516Z,7.92
2019-01-26T14:01:34.429Z,8.20
2019-01-26T14:02:39.310Z,8.00
2019-01-26T14:03:44.315Z,8.23
2019-01-26T14:04:49.713Z,8.28
2019-01-26T14:05:54.709Z,9.28
2019-01-26T14:06:59.700Z,8.15
2019-01-26T14:08:05.190Z,8.10